Kezdőlap
METAR-TAF:

METAR-TAF

Repülőterek :

Quakertown Airport

Quakertown, Pennsylvania, Amerikai Egyesült Államok

földrajzi szélesség: 40-26-06N, földrajzi hosszúság: 075-22-54W, magasság: 160 m

Jelenlegi meteorológiai megfigyelések

A jelentés 22 perccel ezelõtt készült, 11:20 UTC
Szélcsend
Hőmérséklet 21°C
Páratartalom 100%
Légköri nyomás 1011 hPa
Látótávolság: 6.4 km
Borult 800 lábon
Párásság

METAR: KUKT 061120Z AUTO 00000KT 4SM BR OVC008 21/21 A2984 RMK A01

Idő: 07:42 (11:42 UTC)


TAF: hiányzik

Meteorológiai megfigyelések és előrejelzések több, mint 4000 repülőtéren (METAR és TAF jelentéseket).

A térképen piros és sárga pontok jelzik az elérhető meteorológiai állomásokat.

Mozgassa az egeret a pont fölött, hogy megjelenjen az állomás neve.

Azután kattintson az időjárási megfigyelések és előrejelzések megtekintéséhez.

A térkép megváltoztatása: kattintson a fekete keresztel jelölt zöld gombra ráközelítéshez, a vonallal jelölt zöld gombra távolításhoz, vagy a zöld nyilakra a szomszédos térképek eléréséhez.


METAR-TAF: